createdAt,value
2022-08-22T00:00:37.723Z,68.08
2022-08-22T00:03:02.140Z,68.54
2022-08-22T00:03:02.740Z,68.71
2022-08-22T00:03:07.953Z,67.60
2022-08-22T00:05:57.826Z,68.01
2022-08-22T00:08:46.024Z,68.15
2022-08-22T00:11:12.851Z,68.38
2022-08-22T00:13:39.485Z,68.51
2022-08-22T00:16:16.478Z,68.17
2022-08-22T00:19:21.095Z,68.57
2022-08-22T00:22:18.523Z,68.50
2022-08-22T00:24:47.908Z,68.55
2022-08-22T00:27:23.689Z,68.25
2022-08-22T00:30:11.251Z,68.34
2022-08-22T00:32:50.880Z,68.08
2022-08-22T00:35:24.095Z,68.50
2022-08-22T00:38:19.321Z,68.17
2022-08-22T00:41:01.618Z,68.05
2022-08-22T00:43:41.513Z,68.28
2022-08-22T00:46:32.348Z,68.39
2022-08-22T00:49:14.576Z,68.40
2022-08-22T00:52:14.343Z,68.87
2022-08-22T00:54:47.466Z,68.71
2022-08-22T00:57:14.070Z,68.39
2022-08-22T01:00:01.767Z,68.66
2022-08-22T01:02:51.845Z,68.62
2022-08-22T01:05:41.741Z,68.60
2022-08-22T01:08:32.478Z,68.96
2022-08-22T01:11:16.644Z,69.09
2022-08-22T01:13:46.390Z,68.93
2022-08-22T01:16:31.336Z,69.21
2022-08-22T01:19:21.890Z,69.13
2022-08-22T01:22:26.439Z,69.44
2022-08-22T01:25:14.668Z,69.14
2022-08-22T01:28:25.432Z,68.93
2022-08-22T01:31:10.371Z,69.45
2022-08-22T01:34:04.514Z,68.88
2022-08-22T01:36:46.608Z,69.46
2022-08-22T01:39:31.510Z,69.24
2022-08-22T01:42:41.991Z,69.33
2022-08-22T01:45:14.410Z,69.39
2022-08-22T01:47:59.148Z,69.52
2022-08-22T01:50:35.532Z,69.39
2022-08-22T01:53:10.996Z,69.33
2022-08-22T01:55:54.624Z,69.67
2022-08-22T01:58:28.518Z,69.46
2022-08-22T02:01:08.682Z,69.68
2022-08-22T02:03:51.908Z,69.58
2022-08-22T02:06:36.074Z,69.97
2022-08-22T02:09:09.028Z,69.79
2022-08-22T02:11:45.044Z,70.01
2022-08-22T02:14:21.447Z,69.75
2022-08-22T02:16:56.207Z,69.85
2022-08-22T02:19:39.960Z,69.97
2022-08-22T02:22:32.993Z,70.11
2022-08-22T02:25:13.713Z,69.64
2022-08-22T02:28:01.216Z,69.70
2022-08-22T02:30:44.681Z,69.86
2022-08-22T02:33:32.649Z,69.75
2022-08-22T02:36:14.441Z,69.77
2022-08-22T02:38:52.898Z,69.96
2022-08-22T02:41:31.852Z,69.67
2022-08-22T02:44:26.590Z,69.80
2022-08-22T02:47:06.227Z,69.90
2022-08-22T02:49:32.667Z,69.72
2022-08-22T02:52:12.963Z,69.83
2022-08-22T02:55:06.654Z,70.00
2022-08-22T02:57:45.216Z,70.08
2022-08-22T03:00:33.002Z,69.96
2022-08-22T03:02:59.976Z,70.17
2022-08-22T03:05:38.746Z,69.99
2022-08-22T03:08:08.164Z,69.86
2022-08-22T03:10:44.277Z,69.65
2022-08-22T03:13:31.239Z,70.13
2022-08-22T03:16:35.147Z,70.03
2022-08-22T03:19:31.955Z,69.79
2022-08-22T03:22:06.405Z,69.83
2022-08-22T03:24:51.591Z,70.20
2022-08-22T03:27:32.846Z,70.11
2022-08-22T03:30:11.305Z,70.35
2022-08-22T03:32:48.781Z,70.06
2022-08-22T03:35:41.510Z,70.16
2022-08-22T03:38:39.902Z,70.00
2022-08-22T03:41:12.572Z,69.92
2022-08-22T03:43:51.764Z,70.26
2022-08-22T03:46:57.188Z,70.04
2022-08-22T03:50:01.154Z,69.87
2022-08-22T03:53:02.371Z,69.99
2022-08-22T03:55:47.527Z,70.44
2022-08-22T03:58:19.183Z,70.44
2022-08-22T04:01:22.209Z,69.98
2022-08-22T04:04:10.559Z,70.03
2022-08-22T04:07:28.384Z,70.13
2022-08-22T04:10:03.401Z,70.12
2022-08-22T04:12:33.103Z,69.87
2022-08-22T04:15:26.162Z,70.23
2022-08-22T04:18:24.157Z,69.96
2022-08-22T04:20:56.792Z,70.22
2022-08-22T04:23:40.400Z,69.94
2022-08-22T04:26:21.363Z,69.87
2022-08-22T04:28:53.739Z,70.04
2022-08-22T04:31:32.295Z,70.20
2022-08-22T04:34:10.819Z,69.73
2022-08-22T04:36:50.156Z,70.00
2022-08-22T04:39:40.198Z,69.81
2022-08-22T04:42:32.375Z,69.60
2022-08-22T04:45:34.583Z,69.50
2022-08-22T04:48:10.185Z,69.75
2022-08-22T04:50:43.122Z,69.34
2022-08-22T04:54:04.475Z,69.48
2022-08-22T04:56:55.731Z,69.43
2022-08-22T04:59:25.176Z,69.30
2022-08-22T05:01:58.682Z,69.21
2022-08-22T05:04:33.129Z,69.44
2022-08-22T05:07:13.000Z,69.05
2022-08-22T05:09:45.262Z,68.66
2022-08-22T05:12:16.399Z,68.72
2022-08-22T05:14:51.908Z,68.47
2022-08-22T05:17:29.190Z,68.44
2022-08-22T05:25:11.081Z,68.24
2022-08-22T05:30:13.267Z,68.03
2022-08-22T05:32:52.330Z,68.31
2022-08-22T05:35:23.375Z,68.18
2022-08-22T05:37:55.262Z,68.04
2022-08-22T05:40:33.448Z,68.10
2022-08-22T05:43:00.218Z,68.02
2022-08-22T05:45:28.376Z,67.91
2022-08-22T05:48:03.288Z,68.29
2022-08-22T05:50:41.358Z,68.14
2022-08-22T05:53:14.490Z,68.25
2022-08-22T05:55:59.043Z,68.31
2022-08-22T05:58:28.647Z,68.02
2022-08-22T06:01:09.906Z,68.30
2022-08-22T06:03:57.116Z,68.28
2022-08-22T06:06:27.498Z,68.23
2022-08-22T06:09:13.027Z,68.07
2022-08-22T06:11:52.171Z,68.01
2022-08-22T06:14:42.358Z,67.89
2022-08-22T06:17:19.405Z,67.86
2022-08-22T06:19:50.193Z,68.07
2022-08-22T06:22:25.834Z,67.54
2022-08-22T06:24:57.864Z,67.89
2022-08-22T06:27:31.171Z,67.73
2022-08-22T06:30:01.655Z,67.91
2022-08-22T06:32:58.908Z,67.80
2022-08-22T06:35:52.297Z,67.60
2022-08-22T06:38:21.624Z,67.81
2022-08-22T06:40:54.430Z,67.56
2022-08-22T06:43:24.756Z,67.73
2022-08-22T06:45:53.358Z,67.68
2022-08-22T06:48:23.773Z,67.53
2022-08-22T06:50:56.178Z,67.57
2022-08-22T06:53:35.966Z,67.57
2022-08-22T06:56:07.118Z,67.35
2022-08-22T06:58:41.689Z,67.13
2022-08-22T07:01:14.471Z,67.41
2022-08-22T07:03:47.677Z,67.34
2022-08-22T07:06:22.963Z,67.22
2022-08-22T07:08:53.993Z,67.31
2022-08-22T07:11:28.081Z,67.02
2022-08-22T07:14:14.093Z,67.27
2022-08-22T07:16:44.854Z,67.45
2022-08-22T07:19:35.331Z,67.29
2022-08-22T07:22:16.157Z,67.29
2022-08-22T07:24:50.995Z,67.23
2022-08-22T07:27:45.492Z,67.08
2022-08-22T07:30:27.899Z,67.16
2022-08-22T07:33:25.937Z,67.14
2022-08-22T07:35:59.176Z,67.19
2022-08-22T07:38:42.679Z,67.07
2022-08-22T07:41:23.793Z,66.95
2022-08-22T07:43:56.469Z,66.78
2022-08-22T07:46:32.950Z,66.60
2022-08-22T07:49:14.359Z,66.53
2022-08-22T07:51:52.156Z,66.20
2022-08-22T07:55:00.582Z,65.85
2022-08-22T07:57:36.246Z,65.64
2022-08-22T08:00:11.434Z,65.26
2022-08-22T08:02:45.141Z,64.82
2022-08-22T08:05:13.841Z,64.83
2022-08-22T08:07:48.292Z,64.32
2022-08-22T08:10:24.355Z,63.98
2022-08-22T08:13:02.172Z,63.55
2022-08-22T08:15:33.871Z,63.66
2022-08-22T08:18:06.175Z,63.45
2022-08-22T08:20:37.003Z,62.94
2022-08-22T08:23:10.287Z,63.00
2022-08-22T08:25:53.756Z,62.78
2022-08-22T08:28:33.960Z,62.99
2022-08-22T08:31:16.155Z,63.00
2022-08-22T08:33:46.984Z,63.27
2022-08-22T08:36:34.713Z,63.34
2022-08-22T08:39:17.139Z,63.35
2022-08-22T08:41:54.303Z,63.36
2022-08-22T08:44:23.657Z,63.40
2022-08-22T08:47:08.247Z,63.51
2022-08-22T08:49:56.884Z,63.51
2022-08-22T08:52:32.515Z,63.67
2022-08-22T08:55:24.678Z,63.63
2022-08-22T08:58:03.349Z,63.81
2022-08-22T09:00:46.066Z,63.90
2022-08-22T09:03:48.453Z,64.23
2022-08-22T09:06:44.071Z,64.30
2022-08-22T09:09:56.539Z,64.24
2022-08-22T09:12:36.554Z,64.40
2022-08-22T09:15:58.613Z,64.52
2022-08-22T09:18:51.113Z,64.20
2022-08-22T09:21:50.603Z,64.26
2022-08-22T09:25:06.066Z,64.26
2022-08-22T09:27:45.937Z,64.08
2022-08-22T09:30:18.538Z,64.35
2022-08-22T09:33:04.209Z,64.03
2022-08-22T09:35:33.834Z,64.22
2022-08-22T09:38:38.120Z,64.32
2022-08-22T09:41:14.943Z,64.03
2022-08-22T09:43:59.631Z,64.20
2022-08-22T09:46:37.022Z,64.27
2022-08-22T09:49:36.088Z,64.46
2022-08-22T09:52:14.403Z,64.38
2022-08-22T09:54:57.185Z,64.32
2022-08-22T09:57:52.680Z,64.39
2022-08-22T10:00:27.834Z,64.18
2022-08-22T10:03:19.690Z,64.14
2022-08-22T10:05:57.683Z,64.20
2022-08-22T10:08:45.930Z,64.07
2022-08-22T10:11:19.582Z,63.93
2022-08-22T10:14:05.343Z,63.94
2022-08-22T10:16:56.707Z,64.09
2022-08-22T10:19:33.833Z,64.02
2022-08-22T10:22:22.941Z,63.75
2022-08-22T10:25:28.604Z,63.62
2022-08-22T10:28:14.359Z,63.81
2022-08-22T10:30:47.899Z,63.93
2022-08-22T10:33:22.787Z,64.09
2022-08-22T10:36:20.031Z,64.09
2022-08-22T10:38:53.426Z,64.01
2022-08-22T10:41:38.807Z,63.87
2022-08-22T10:44:24.608Z,63.96
2022-08-22T10:47:11.994Z,64.26
2022-08-22T10:50:00.964Z,64.18
2022-08-22T10:52:32.150Z,64.12
2022-08-22T10:55:10.074Z,64.25
2022-08-22T10:58:10.749Z,64.47
2022-08-22T11:00:56.973Z,64.41
2022-08-22T11:03:41.773Z,64.43
2022-08-22T11:06:24.937Z,64.30
2022-08-22T11:08:57.918Z,64.60
2022-08-22T11:11:36.236Z,64.90
2022-08-22T11:14:22.262Z,64.68
2022-08-22T11:17:31.076Z,65.13
2022-08-22T11:20:03.708Z,65.05
2022-08-22T11:22:48.208Z,65.08
2022-08-22T11:25:38.443Z,64.96
2022-08-22T11:28:36.446Z,65.19
2022-08-22T11:31:08.777Z,65.09
2022-08-22T11:33:49.177Z,65.26
2022-08-22T11:36:26.217Z,65.27
2022-08-22T11:39:18.015Z,65.19
2022-08-22T11:41:53.532Z,65.24
2022-08-22T11:44:50.170Z,65.83
2022-08-22T11:47:28.138Z,65.82
2022-08-22T11:50:23.764Z,66.31
2022-08-22T11:53:16.028Z,66.59
2022-08-22T11:56:00.131Z,66.77
2022-08-22T11:59:04.430Z,66.97
2022-08-22T12:01:59.534Z,66.51
2022-08-22T12:04:53.870Z,65.96
2022-08-22T12:07:39.631Z,66.05
2022-08-22T12:10:19.834Z,65.51
2022-08-22T12:13:08.668Z,65.58
2022-08-22T12:15:48.963Z,65.32
2022-08-22T12:18:39.314Z,64.94
2022-08-22T12:21:10.320Z,64.98
2022-08-22T12:24:11.168Z,65.02
2022-08-22T12:27:00.666Z,64.64
2022-08-22T12:29:44.724Z,64.43
2022-08-22T12:32:50.103Z,63.97
2022-08-22T12:35:50.722Z,63.09
2022-08-22T12:38:28.390Z,63.09
2022-08-22T12:41:37.471Z,61.20
2022-08-22T12:44:22.898Z,57.87
2022-08-22T12:47:03.165Z,55.27
2022-08-22T12:49:56.710Z,53.24
2022-08-22T12:52:52.530Z,52.73
2022-08-22T12:55:45.900Z,51.56
2022-08-22T12:58:18.936Z,51.69
2022-08-22T13:00:48.339Z,51.30
2022-08-22T13:03:35.785Z,50.87
2022-08-22T13:06:37.819Z,50.35
2022-08-22T13:09:18.702Z,50.24
2022-08-22T13:11:50.431Z,50.25
2022-08-22T13:14:25.695Z,50.89
2022-08-22T13:17:00.908Z,50.64
2022-08-22T13:19:54.075Z,50.75
2022-08-22T13:22:27.464Z,50.51
2022-08-22T13:25:25.960Z,51.14
2022-08-22T13:28:10.135Z,51.51
2022-08-22T13:30:40.145Z,51.21
2022-08-22T13:33:14.735Z,51.50
2022-08-22T13:35:54.158Z,52.06
2022-08-22T13:38:32.789Z,52.62
2022-08-22T13:41:02.804Z,53.27
2022-08-22T13:43:36.050Z,53.33
2022-08-22T13:46:06.669Z,52.24
2022-08-22T13:48:51.204Z,50.92
2022-08-22T13:51:40.277Z,50.87
2022-08-22T13:54:11.259Z,50.17
2022-08-22T13:57:10.962Z,50.46
2022-08-22T13:59:52.067Z,50.71
2022-08-22T14:02:43.477Z,51.40
2022-08-22T14:05:18.882Z,51.75
2022-08-22T14:08:06.644Z,51.97
2022-08-22T14:10:55.054Z,52.26
2022-08-22T14:13:24.231Z,52.20
2022-08-22T14:16:07.293Z,52.41
2022-08-22T14:18:45.634Z,52.72
2022-08-22T14:21:26.134Z,52.96
2022-08-22T14:24:18.998Z,53.37
2022-08-22T14:26:54.082Z,54.24
2022-08-22T14:29:31.870Z,54.68
2022-08-22T14:32:22.559Z,55.04
2022-08-22T14:35:21.477Z,55.79
2022-08-22T14:37:54.410Z,56.56
2022-08-22T14:40:36.841Z,57.24
2022-08-22T14:43:22.564Z,57.17
2022-08-22T14:46:02.154Z,57.68
2022-08-22T14:48:39.338Z,57.76
2022-08-22T14:51:21.214Z,58.34
2022-08-22T14:53:50.211Z,57.92
2022-08-22T14:56:25.686Z,58.43
2022-08-22T14:58:58.238Z,58.99
2022-08-22T15:01:29.696Z,58.86
2022-08-22T15:04:10.516Z,59.53
2022-08-22T15:06:48.113Z,59.15
2022-08-22T15:09:33.627Z,59.57
2022-08-22T15:12:05.793Z,60.02
2022-08-22T15:14:38.361Z,59.94
2022-08-22T15:17:08.997Z,59.84
2022-08-22T15:19:46.420Z,60.40
2022-08-22T15:22:21.544Z,60.33
2022-08-22T15:25:04.445Z,59.73
2022-08-22T15:27:34.986Z,60.26
2022-08-22T15:30:20.684Z,60.09
2022-08-22T15:32:49.193Z,60.36
2022-08-22T15:35:31.652Z,60.39
2022-08-22T15:38:03.091Z,61.03
2022-08-22T15:40:42.089Z,61.16
2022-08-22T15:43:21.880Z,61.61
2022-08-22T15:45:52.471Z,61.47
2022-08-22T15:48:36.711Z,61.86
2022-08-22T15:51:10.745Z,61.69
2022-08-22T15:53:43.824Z,61.79
2022-08-22T15:56:13.339Z,61.69
2022-08-22T15:58:49.530Z,61.82
2022-08-22T16:01:19.167Z,61.89
2022-08-22T16:04:01.330Z,62.57
2022-08-22T16:06:39.897Z,62.32
2022-08-22T16:09:29.726Z,62.14
2022-08-22T16:11:58.930Z,62.60
2022-08-22T16:14:34.367Z,62.60
2022-08-22T16:17:09.442Z,62.43
2022-08-22T16:19:38.314Z,62.67
2022-08-22T16:22:08.195Z,63.18
2022-08-22T16:24:56.539Z,63.36
2022-08-22T16:27:25.917Z,62.93
2022-08-22T16:30:08.173Z,63.81
2022-08-22T16:32:36.100Z,63.52
2022-08-22T16:35:03.240Z,63.86
2022-08-22T16:37:43.038Z,64.22
2022-08-22T16:40:17.279Z,64.46
2022-08-22T16:42:49.175Z,64.16
2022-08-22T16:45:36.642Z,64.54
2022-08-22T16:48:36.750Z,64.43
2022-08-22T16:51:18.612Z,64.62
2022-08-22T16:54:03.805Z,64.89
2022-08-22T16:56:39.952Z,65.26
2022-08-22T16:59:38.579Z,65.24
2022-08-22T17:02:14.184Z,65.33
2022-08-22T17:04:55.550Z,65.26
2022-08-22T17:07:51.740Z,65.63
2022-08-22T17:10:27.058Z,65.69
2022-08-22T17:13:22.344Z,65.93
2022-08-22T17:16:21.048Z,66.12
2022-08-22T17:18:53.597Z,65.72
2022-08-22T17:21:29.561Z,65.60
2022-08-22T17:24:09.152Z,65.81
2022-08-22T17:27:06.202Z,65.43
2022-08-22T17:30:02.644Z,65.73
2022-08-22T17:32:58.288Z,65.50
2022-08-22T17:35:30.534Z,65.20
2022-08-22T17:38:00.080Z,65.55
2022-08-22T17:40:53.234Z,65.23
2022-08-22T17:43:52.302Z,65.38
2022-08-22T17:46:37.690Z,65.56
2022-08-22T17:49:41.318Z,65.52
2022-08-22T17:52:16.048Z,65.47
2022-08-22T17:54:57.231Z,65.61
2022-08-22T17:57:47.862Z,65.76
2022-08-22T18:00:31.512Z,66.09
2022-08-22T18:03:07.153Z,66.04
2022-08-22T18:05:48.894Z,66.01
2022-08-22T18:08:38.290Z,65.99
2022-08-22T18:11:24.883Z,65.92
2022-08-22T18:13:57.302Z,66.08
2022-08-22T18:16:36.090Z,66.09
2022-08-22T18:19:24.041Z,66.24
2022-08-22T18:22:06.822Z,66.24
2022-08-22T18:24:37.135Z,66.53
2022-08-22T18:27:41.159Z,66.43
2022-08-22T18:30:13.647Z,66.38
2022-08-22T18:32:55.695Z,66.64
2022-08-22T18:35:32.923Z,66.47
2022-08-22T18:38:19.604Z,66.54
2022-08-22T18:40:54.431Z,66.83
2022-08-22T18:43:36.278Z,66.87
2022-08-22T18:46:25.299Z,67.09
2022-08-22T18:49:14.033Z,67.17
2022-08-22T18:51:41.673Z,67.49
2022-08-22T18:54:08.389Z,67.69
2022-08-22T18:57:08.469Z,67.81
2022-08-22T18:59:35.118Z,67.94
2022-08-22T19:02:41.062Z,67.87
2022-08-22T19:05:22.996Z,67.73
2022-08-22T19:08:10.761Z,68.12
2022-08-22T19:10:54.435Z,67.79
2022-08-22T19:13:39.235Z,68.02
2022-08-22T19:16:33.905Z,68.18
2022-08-22T19:19:07.969Z,68.39
2022-08-22T19:22:19.342Z,68.19
2022-08-22T19:25:12.623Z,68.19
2022-08-22T19:27:57.029Z,68.04
2022-08-22T19:30:39.473Z,68.18
2022-08-22T19:33:11.501Z,68.21
2022-08-22T19:35:50.967Z,68.36
2022-08-22T19:38:35.939Z,68.17
2022-08-22T19:41:03.377Z,68.04
2022-08-22T19:43:35.655Z,68.05
2022-08-22T19:46:12.077Z,68.10
2022-08-22T19:48:50.416Z,68.26
2022-08-22T19:51:20.436Z,68.21
2022-08-22T19:54:02.313Z,68.03
2022-08-22T19:56:47.413Z,67.93
2022-08-22T20:00:00.324Z,68.11
2022-08-22T20:02:51.633Z,68.26
2022-08-22T20:05:53.652Z,68.05
2022-08-22T20:08:54.774Z,68.14
2022-08-22T20:12:08.490Z,68.13
2022-08-22T20:14:40.210Z,67.84
2022-08-22T20:17:36.838Z,68.01
2022-08-22T20:20:17.824Z,68.00
2022-08-22T20:23:03.525Z,68.04
2022-08-22T20:25:45.713Z,67.95
2022-08-22T20:28:30.158Z,67.76
2022-08-22T20:31:00.894Z,67.99
2022-08-22T20:33:32.515Z,68.04
2022-08-22T20:36:05.268Z,68.14
2022-08-22T20:38:55.396Z,68.14
2022-08-22T20:41:29.076Z,68.09
2022-08-22T20:44:14.519Z,68.13
2022-08-22T20:46:55.666Z,68.56
2022-08-22T20:49:42.142Z,68.38
2022-08-22T20:52:21.552Z,68.22
2022-08-22T20:55:00.065Z,68.21
2022-08-22T20:57:27.530Z,68.05
2022-08-22T20:59:58.194Z,68.06
2022-08-22T21:02:30.319Z,68.00
2022-08-22T21:05:22.514Z,68.29
2022-08-22T21:08:06.932Z,68.29
2022-08-22T21:10:55.229Z,68.42
2022-08-22T21:13:23.499Z,68.77
2022-08-22T21:15:56.367Z,68.58
2022-08-22T21:18:36.732Z,68.77
2022-08-22T21:21:08.021Z,68.99
2022-08-22T21:23:43.067Z,68.96
2022-08-22T21:26:20.955Z,68.86
2022-08-22T21:29:14.327Z,68.94
2022-08-22T21:31:50.554Z,68.38
2022-08-22T21:34:34.180Z,68.57
2022-08-22T21:37:11.689Z,68.77
2022-08-22T21:39:51.374Z,68.94
2022-08-22T21:42:40.043Z,69.38
2022-08-22T21:47:40.066Z,69.09
2022-08-22T21:50:23.527Z,69.51
2022-08-22T21:52:56.366Z,69.50
2022-08-22T21:55:29.311Z,69.82
2022-08-22T21:58:31.005Z,69.80
2022-08-22T22:01:24.847Z,69.86
2022-08-22T22:03:52.118Z,70.15
2022-08-22T22:06:18.808Z,70.07
2022-08-22T22:08:46.168Z,70.43
2022-08-22T22:11:14.868Z,70.30
2022-08-22T22:13:43.092Z,70.20
2022-08-22T22:16:12.771Z,70.45
2022-08-22T22:18:39.514Z,70.51
2022-08-22T22:21:06.369Z,70.86
2022-08-22T22:23:33.061Z,70.93
2022-08-22T22:26:02.707Z,70.58
2022-08-22T22:28:37.499Z,70.76
2022-08-22T22:31:05.213Z,70.39
2022-08-22T22:33:41.016Z,70.19
2022-08-22T22:36:16.219Z,70.22
2022-08-22T22:38:43.382Z,70.15
2022-08-22T22:41:11.423Z,70.44
2022-08-22T22:43:39.216Z,70.52
2022-08-22T22:46:06.526Z,70.23
2022-08-22T22:48:33.773Z,70.15
2022-08-22T22:51:08.662Z,69.98
2022-08-22T22:53:38.387Z,70.29
2022-08-22T22:56:11.617Z,70.11
2022-08-22T22:58:38.576Z,70.26
2022-08-22T23:01:10.131Z,70.15
2022-08-22T23:03:37.003Z,69.93
2022-08-22T23:06:03.773Z,69.80
2022-08-22T23:08:30.790Z,69.58
2022-08-22T23:10:58.697Z,69.62
2022-08-22T23:13:26.631Z,69.45
2022-08-22T23:15:53.637Z,69.32
2022-08-22T23:18:20.924Z,69.57
2022-08-22T23:20:53.947Z,69.27
2022-08-22T23:23:20.613Z,69.34
2022-08-22T23:25:47.544Z,69.41
2022-08-22T23:28:14.237Z,69.13
2022-08-22T23:30:42.160Z,68.84
2022-08-22T23:33:08.852Z,69.06
2022-08-22T23:35:35.538Z,68.89
2022-08-22T23:38:02.278Z,69.00
2022-08-22T23:40:29.044Z,68.73
2022-08-22T23:42:57.044Z,68.82
2022-08-22T23:45:24.662Z,68.64
2022-08-22T23:47:51.338Z,68.55
2022-08-22T23:50:18.040Z,68.87
2022-08-22T23:52:45.647Z,68.76
2022-08-22T23:55:14.106Z,68.74
2022-08-22T23:57:40.772Z,68.52
